createdAt,value
2023-04-01T00:01:43.907Z,19.92
2023-04-01T00:04:18.081Z,19.60
2023-04-01T00:06:52.655Z,21.98
2023-04-01T00:09:25.875Z,17.48
2023-04-01T00:12:04.565Z,21.70
2023-04-01T00:14:38.054Z,16.75
2023-04-01T00:17:11.712Z,19.23
2023-04-01T00:19:44.682Z,19.77
2023-04-01T00:22:17.707Z,19.50
2023-04-01T00:24:50.692Z,20.90
2023-04-01T00:27:25.100Z,17.92
2023-04-01T00:29:58.489Z,19.10
2023-04-01T00:32:31.622Z,18.73
2023-04-01T00:35:05.385Z,18.55
2023-04-01T00:40:26.918Z,17.75
2023-04-01T00:43:01.985Z,20.63
2023-04-01T00:45:37.151Z,18.88
2023-04-01T00:48:13.159Z,20.25
2023-04-01T00:50:50.967Z,25.65
2023-04-01T00:53:25.345Z,19.08
2023-04-01T00:56:03.483Z,16.90
2023-04-01T00:58:44.346Z,17.92
2023-04-01T01:01:17.681Z,20.02
2023-04-01T01:03:50.737Z,17.23
2023-04-01T01:06:40.982Z,18.42
2023-04-01T01:09:32.528Z,19.10
2023-04-01T01:12:12.367Z,18.40
2023-04-01T01:14:58.703Z,20.42
2023-04-01T01:17:45.372Z,20.55
2023-04-01T01:20:55.860Z,20.02
2023-04-01T01:23:59.971Z,19.95
2023-04-01T01:26:49.544Z,19.20
2023-04-01T01:30:01.689Z,16.17
2023-04-01T01:32:51.952Z,18.85
2023-04-01T01:35:30.410Z,17.05
2023-04-01T01:38:07.063Z,19.83
2023-04-01T01:40:44.970Z,18.25
2023-04-01T01:43:21.902Z,19.88
2023-04-01T01:45:58.187Z,18.65
2023-04-01T01:48:33.431Z,17.02
2023-04-01T01:51:08.091Z,15.98
2023-04-01T01:53:41.119Z,22.00
2023-04-01T01:56:15.045Z,20.40
2023-04-01T01:58:54.046Z,21.58
2023-04-01T02:01:32.051Z,19.88
2023-04-01T02:04:15.899Z,18.67
2023-04-01T02:06:56.806Z,17.35
2023-04-01T02:09:32.295Z,21.80
2023-04-01T02:12:08.047Z,22.60
2023-04-01T02:14:51.558Z,21.77
2023-04-01T02:17:28.837Z,21.13
2023-04-01T02:20:05.466Z,17.52
2023-04-01T02:22:43.658Z,21.40
2023-04-01T02:25:19.825Z,22.08
2023-04-01T02:27:53.759Z,19.70
2023-04-01T02:30:28.776Z,16.85
2023-04-01T02:33:02.622Z,19.48
2023-04-01T02:35:38.670Z,19.23
2023-04-01T02:38:13.089Z,20.20
2023-04-01T02:40:49.502Z,18.70
2023-04-01T02:43:22.502Z,19.42
2023-04-01T02:45:56.067Z,16.65
2023-04-01T02:48:29.079Z,17.70
2023-04-01T02:51:02.113Z,18.40
2023-04-01T02:53:36.525Z,14.45
2023-04-01T02:56:09.582Z,19.05
2023-04-01T02:58:42.570Z,16.98
2023-04-01T03:01:15.893Z,15.83
2023-04-01T03:03:48.907Z,14.15
2023-04-01T03:06:21.932Z,15.98
2023-04-01T03:08:56.542Z,15.27
2023-04-01T03:11:29.604Z,22.35
2023-04-01T03:14:02.614Z,15.32
2023-04-01T03:16:35.700Z,15.50
2023-04-01T03:19:08.821Z,15.45
2023-04-01T03:21:41.818Z,14.35
2023-04-01T03:24:16.329Z,16.88
2023-04-01T03:26:49.482Z,19.65
2023-04-01T03:29:22.806Z,16.73
2023-04-01T03:31:58.861Z,17.60
2023-04-01T03:34:31.918Z,20.50
2023-04-01T03:37:05.231Z,21.15
2023-04-01T03:39:39.906Z,18.08
2023-04-01T03:42:13.032Z,19.13
2023-04-01T03:44:46.254Z,17.95
2023-04-01T03:47:19.493Z,15.90
2023-04-01T03:49:52.493Z,18.90
2023-04-01T03:52:25.561Z,19.50
2023-04-01T03:54:59.996Z,23.38
2023-04-01T03:57:33.888Z,21.70
2023-04-01T04:00:16.485Z,24.00
2023-04-01T04:02:51.960Z,23.20
2023-04-01T04:05:31.246Z,21.92
2023-04-01T04:08:05.263Z,23.60
2023-04-01T04:10:40.937Z,25.05
2023-04-01T04:13:14.042Z,24.20
2023-04-01T04:15:54.626Z,22.48
2023-04-01T04:18:27.746Z,23.65
2023-04-01T04:21:01.027Z,26.27
2023-04-01T04:23:34.704Z,24.30
2023-04-01T04:26:11.105Z,26.50
2023-04-01T04:28:45.929Z,24.00
2023-04-01T04:31:22.398Z,25.92
2023-04-01T04:33:56.720Z,24.95
2023-04-01T04:36:29.807Z,28.55
2023-04-01T04:39:04.268Z,30.48
2023-04-01T04:41:40.387Z,29.48
2023-04-01T04:44:13.478Z,27.13
2023-04-01T04:46:46.595Z,27.88
2023-04-01T04:49:21.380Z,29.33
2023-04-01T04:51:54.528Z,29.98
2023-04-01T04:54:31.668Z,30.92
2023-04-01T04:57:08.162Z,29.30
2023-04-01T04:59:48.544Z,36.40
2023-04-01T05:02:45.054Z,28.98
2023-04-01T05:05:18.176Z,30.58
2023-04-01T05:07:51.175Z,31.90
2023-04-01T05:10:24.254Z,34.00
2023-04-01T05:12:58.642Z,32.25
2023-04-01T05:15:32.057Z,32.60
2023-04-01T05:18:05.609Z,28.85
2023-04-01T05:20:38.610Z,27.17
2023-04-01T05:23:12.457Z,32.42
2023-04-01T05:28:21.554Z,27.38
2023-04-01T05:30:54.662Z,26.83
2023-04-01T05:33:30.510Z,28.02
2023-04-01T05:36:11.709Z,31.17
2023-04-01T05:38:46.861Z,27.92
2023-04-01T05:41:20.195Z,27.75
2023-04-01T05:43:54.573Z,28.33
2023-04-01T05:46:45.974Z,25.27
2023-04-01T05:49:30.208Z,26.58
2023-04-01T05:52:03.249Z,25.52
2023-04-01T05:54:37.626Z,48.58
2023-04-01T05:57:10.605Z,25.00
2023-04-01T05:59:45.598Z,25.50
2023-04-01T06:02:20.446Z,24.05
2023-04-01T06:05:04.319Z,25.75
2023-04-01T06:07:37.356Z,24.17
2023-04-01T06:10:16.313Z,23.73
2023-04-01T06:13:06.615Z,21.38
2023-04-01T06:15:45.542Z,26.55
2023-04-01T06:18:54.440Z,25.15
2023-04-01T06:21:58.641Z,24.95
2023-04-01T06:24:46.746Z,32.90
2023-04-01T06:27:34.796Z,62.60
2023-04-01T06:30:27.209Z,28.08
2023-04-01T06:33:16.518Z,26.65
2023-04-01T06:36:19.911Z,24.85
2023-04-01T06:39:12.259Z,25.07
2023-04-01T06:42:10.466Z,26.83
2023-04-01T06:44:56.503Z,24.70
2023-04-01T06:48:05.513Z,25.77
2023-04-01T06:51:30.900Z,24.50
2023-04-01T06:54:32.009Z,23.98
2023-04-01T06:57:36.681Z,26.48
2023-04-01T07:00:16.407Z,34.13
2023-04-01T07:02:59.247Z,50.17
2023-04-01T07:05:34.583Z,31.20
2023-04-01T07:08:14.356Z,32.05
2023-04-01T07:10:52.769Z,32.83
2023-04-01T07:13:53.284Z,30.60
2023-04-01T07:16:31.879Z,28.48
2023-04-01T07:19:10.898Z,28.70
2023-04-01T07:22:23.677Z,31.80
2023-04-01T07:28:23.123Z,34.45
2023-04-01T07:31:17.948Z,34.50
2023-04-01T07:33:59.848Z,35.17
2023-04-01T07:36:39.323Z,31.75
2023-04-01T07:39:24.527Z,29.52
2023-04-01T07:42:41.980Z,28.95
2023-04-01T07:45:23.295Z,32.28
2023-04-01T07:48:08.919Z,34.97
2023-04-01T07:50:51.234Z,32.03
2023-04-01T07:53:33.755Z,29.38
2023-04-01T07:56:12.300Z,27.70
2023-04-01T07:59:18.672Z,31.27
2023-04-01T08:02:12.768Z,32.10
2023-04-01T08:04:59.769Z,37.33
2023-04-01T08:07:43.377Z,35.25
2023-04-01T08:10:46.289Z,31.90
2023-04-01T08:13:44.608Z,33.53
2023-04-01T08:16:37.465Z,31.02
2023-04-01T08:19:21.875Z,35.10
2023-04-01T08:21:59.818Z,36.03
2023-04-01T08:24:47.582Z,36.08
2023-04-01T08:27:36.359Z,37.85
2023-04-01T08:30:21.133Z,34.70
2023-04-01T08:32:59.215Z,35.45
2023-04-01T08:35:40.305Z,38.70
2023-04-01T08:38:19.907Z,36.92
2023-04-01T08:41:03.937Z,38.97
2023-04-01T08:44:14.715Z,36.25
2023-04-01T08:47:11.969Z,33.45
2023-04-01T08:50:08.406Z,30.10
2023-04-01T08:53:16.221Z,29.83
2023-04-01T08:56:07.253Z,25.93
2023-04-01T08:59:09.733Z,30.55
2023-04-01T09:01:55.597Z,24.65
2023-04-01T09:05:08.904Z,22.95
2023-04-01T09:07:54.522Z,22.80
2023-04-01T09:10:52.325Z,18.90
2023-04-01T09:14:09.449Z,20.15
2023-04-01T09:17:16.523Z,22.40
2023-04-01T09:20:07.844Z,20.40
2023-04-01T09:22:55.283Z,19.73
2023-04-01T09:25:55.961Z,20.08
2023-04-01T09:28:33.866Z,19.90
2023-04-01T09:31:23.128Z,19.83
2023-04-01T09:34:41.144Z,16.90
2023-04-01T09:37:24.004Z,15.65
2023-04-01T09:40:19.484Z,13.52
2023-04-01T09:43:35.422Z,11.98
2023-04-01T09:46:22.823Z,8.75
2023-04-01T09:49:38.222Z,10.23
2023-04-01T09:52:32.028Z,10.60
2023-04-01T09:55:38.195Z,8.93
2023-04-01T09:58:45.479Z,10.02
2023-04-01T10:01:47.888Z,9.02
2023-04-01T10:05:03.339Z,12.15
2023-04-01T10:08:16.600Z,11.10
2023-04-01T10:11:15.284Z,13.70
2023-04-01T10:14:13.143Z,32.38
2023-04-01T10:17:19.531Z,14.63
2023-04-01T10:20:20.997Z,11.15
2023-04-01T10:23:24.120Z,12.25
2023-04-01T10:26:37.028Z,11.95
2023-04-01T10:30:20.625Z,9.55
2023-04-01T10:33:27.961Z,12.57
2023-04-01T10:36:28.768Z,12.30
2023-04-01T10:39:28.014Z,6.57
2023-04-01T10:42:42.801Z,5.82
2023-04-01T10:46:40.240Z,6.82
2023-04-01T10:49:46.490Z,10.50
2023-04-01T10:52:59.687Z,9.38
2023-04-01T10:56:27.818Z,7.60
2023-04-01T11:00:05.034Z,6.05
2023-04-01T11:03:35.769Z,2.65
2023-04-01T11:10:10.990Z,3.60
2023-04-01T11:13:44.206Z,3.88
2023-04-01T11:16:53.536Z,4.72
2023-04-01T11:20:03.283Z,4.85
2023-04-01T11:23:00.437Z,2.75
2023-04-01T11:26:02.032Z,1.98
2023-04-01T11:29:24.440Z,2.75
2023-04-01T11:32:09.779Z,1.85
2023-04-01T11:34:56.331Z,2.00
2023-04-01T11:37:44.857Z,2.00
2023-04-01T11:40:51.651Z,3.10
2023-04-01T11:43:51.416Z,1.95
2023-04-01T11:50:14.484Z,2.78
2023-04-01T11:53:07.606Z,4.30
2023-04-01T11:55:52.517Z,7.70
2023-04-01T11:58:42.283Z,2.50
2023-04-01T12:01:45.480Z,4.00
2023-04-01T12:04:44.624Z,3.28
2023-04-01T12:07:27.216Z,3.40
2023-04-01T12:10:13.101Z,3.03
2023-04-01T12:13:01.241Z,3.47
2023-04-01T12:15:47.418Z,3.50
2023-04-01T12:18:27.664Z,3.60
2023-04-01T12:21:12.228Z,35.50
2023-04-01T12:24:17.622Z,4.53
2023-04-01T12:27:04.706Z,3.92
2023-04-01T12:29:51.707Z,3.97
2023-04-01T12:32:31.658Z,5.60
2023-04-01T12:35:21.147Z,4.60
2023-04-01T12:38:23.592Z,5.03
2023-04-01T12:41:21.931Z,6.90
2023-04-01T12:44:30.696Z,5.75
2023-04-01T12:47:20.526Z,4.70
2023-04-01T12:50:04.873Z,5.32
2023-04-01T12:52:53.815Z,4.60
2023-04-01T12:55:45.435Z,3.60
2023-04-01T12:59:01.035Z,8.95
2023-04-01T13:02:01.550Z,3.25
2023-04-01T13:04:56.126Z,3.88
2023-04-01T13:07:54.184Z,3.50
2023-04-01T13:10:40.818Z,2.88
2023-04-01T13:13:38.854Z,2.35
2023-04-01T13:16:18.608Z,3.38
2023-04-01T13:19:00.665Z,3.15
2023-04-01T13:21:46.718Z,3.20
2023-04-01T13:24:33.460Z,3.53
2023-04-01T13:27:16.747Z,3.17
2023-04-01T13:30:04.414Z,4.22
2023-04-01T13:32:45.653Z,5.13
2023-04-01T13:35:28.266Z,2.90
2023-04-01T13:38:18.136Z,3.83
2023-04-01T13:41:03.670Z,3.38
2023-04-01T13:43:41.757Z,2.97
2023-04-01T13:46:34.654Z,4.25
2023-04-01T13:49:28.974Z,3.25
2023-04-01T13:52:26.370Z,15.93
2023-04-01T13:55:27.469Z,30.08
2023-04-01T13:58:45.013Z,3.42
2023-04-01T14:01:27.864Z,2.65
2023-04-01T14:04:24.229Z,3.05
2023-04-01T14:07:08.597Z,2.58
2023-04-01T14:09:51.996Z,3.92
2023-04-01T14:12:32.166Z,2.40
2023-04-01T14:15:34.377Z,1.80
2023-04-01T14:18:39.591Z,1.70
2023-04-01T14:21:25.454Z,3.05
2023-04-01T14:24:27.690Z,3.03
2023-04-01T14:27:26.965Z,1.25
2023-04-01T14:30:29.566Z,2.33
2023-04-01T14:33:15.386Z,52.03
2023-04-01T14:36:05.046Z,20.00
2023-04-01T14:38:50.340Z,3.78
2023-04-01T14:41:36.642Z,3.17
2023-04-01T14:44:47.144Z,3.35
2023-04-01T14:47:33.548Z,2.90
2023-04-01T14:50:11.809Z,4.72
2023-04-01T14:52:51.330Z,2.50
2023-04-01T14:55:34.372Z,4.03
2023-04-01T14:58:12.854Z,4.75
2023-04-01T15:00:56.876Z,3.20
2023-04-01T15:06:32.952Z,4.78
2023-04-01T15:09:16.619Z,3.53
2023-04-01T15:12:03.267Z,3.33
2023-04-01T15:15:02.745Z,4.22
2023-04-01T15:17:59.439Z,6.53
2023-04-01T15:20:47.775Z,7.72
2023-04-01T15:23:33.556Z,8.32
2023-04-01T15:26:17.776Z,7.80
2023-04-01T15:29:06.738Z,10.40
2023-04-01T15:31:46.675Z,7.97
2023-04-01T15:34:28.478Z,6.45
2023-04-01T15:37:10.114Z,9.50
2023-04-01T15:39:56.922Z,8.52
2023-04-01T15:42:49.871Z,12.85
2023-04-01T15:45:38.316Z,11.55
2023-04-01T15:48:30.695Z,8.88
2023-04-01T15:51:45.477Z,9.13
2023-04-01T15:54:28.541Z,10.70
2023-04-01T15:57:17.632Z,8.47
2023-04-01T16:00:12.018Z,11.30
2023-04-01T16:02:52.871Z,10.80
2023-04-01T16:05:36.297Z,14.38
2023-04-01T16:08:33.706Z,25.77
2023-04-01T16:11:21.646Z,13.90
2023-04-01T16:14:07.032Z,11.80
2023-04-01T16:16:54.176Z,12.45
2023-04-01T16:19:45.649Z,13.15
2023-04-01T16:22:24.187Z,12.90
2023-04-01T16:25:07.950Z,12.98
2023-04-01T16:27:48.260Z,14.10
2023-04-01T16:30:39.068Z,19.90
2023-04-01T16:33:19.977Z,15.25
2023-04-01T16:36:00.422Z,10.77
2023-04-01T16:38:39.858Z,15.07
2023-04-01T16:41:21.121Z,17.73
2023-04-01T16:43:58.364Z,17.85
2023-04-01T16:46:36.642Z,12.00
2023-04-01T16:49:34.067Z,12.63
2023-04-01T16:52:18.366Z,11.30
2023-04-01T16:54:59.020Z,12.77
2023-04-01T16:57:45.869Z,10.32
2023-04-01T17:00:27.483Z,10.77
2023-04-01T17:03:13.611Z,9.23
2023-04-01T17:06:09.659Z,7.65
2023-04-01T17:09:04.341Z,11.88
2023-04-01T17:11:43.511Z,45.55
2023-04-01T17:14:25.980Z,9.43
2023-04-01T17:17:18.921Z,11.68
2023-04-01T17:20:07.080Z,11.68
2023-04-01T17:22:47.812Z,12.75
2023-04-01T17:25:44.853Z,9.40
2023-04-01T17:28:35.653Z,10.85
2023-04-01T17:31:15.589Z,9.48
2023-04-01T17:34:19.413Z,9.35
2023-04-01T17:37:13.786Z,8.83
2023-04-01T17:39:54.097Z,13.88
2023-04-01T17:42:42.959Z,20.60
2023-04-01T17:45:26.216Z,21.05
2023-04-01T17:48:10.510Z,19.48
2023-04-01T17:51:00.257Z,21.80
2023-04-01T17:53:46.946Z,18.92
2023-04-01T17:56:31.904Z,24.08
2023-04-01T17:59:18.140Z,21.75
2023-04-01T18:02:01.725Z,24.02
2023-04-01T18:04:52.059Z,22.30
2023-04-01T18:07:56.552Z,21.63
2023-04-01T18:10:36.575Z,22.92
2023-04-01T18:13:43.484Z,25.55
2023-04-01T18:16:32.408Z,26.35
2023-04-01T18:19:16.148Z,26.00
2023-04-01T18:21:53.186Z,25.58
2023-04-01T18:24:33.205Z,21.95
2023-04-01T18:27:14.186Z,26.25
2023-04-01T18:29:53.606Z,25.33
2023-04-01T18:32:46.195Z,26.17
2023-04-01T18:35:29.412Z,23.35
2023-04-01T18:38:08.516Z,21.52
2023-04-01T18:40:49.181Z,22.75
2023-04-01T18:43:38.732Z,22.92
2023-04-01T18:46:21.445Z,23.10
2023-04-01T18:49:08.356Z,22.80
2023-04-01T18:51:50.001Z,21.67
2023-04-01T18:54:30.883Z,44.35
2023-04-01T18:57:14.423Z,32.40
2023-04-01T18:59:52.923Z,23.38
2023-04-01T19:02:33.702Z,25.40
2023-04-01T19:05:14.292Z,22.80
2023-04-01T19:07:50.172Z,22.92
2023-04-01T19:10:38.966Z,24.42
2023-04-01T19:13:21.783Z,26.95
2023-04-01T19:16:02.984Z,23.85
2023-04-01T19:18:53.742Z,24.98
2023-04-01T19:21:36.165Z,23.70
2023-04-01T19:24:47.896Z,28.73
2023-04-01T19:27:32.703Z,32.08
2023-04-01T19:30:30.545Z,31.38
2023-04-01T19:33:19.513Z,30.92
2023-04-01T19:36:02.865Z,30.35
2023-04-01T19:38:41.313Z,34.03
2023-04-01T19:41:27.279Z,26.10
2023-04-01T19:44:11.355Z,26.27
2023-04-01T19:49:34.893Z,45.20
2023-04-01T19:52:18.235Z,43.03
2023-04-01T19:54:59.306Z,30.37
2023-04-01T19:57:42.982Z,29.77
2023-04-01T20:00:25.931Z,29.27
2023-04-01T20:03:20.945Z,30.17
2023-04-01T20:06:11.457Z,31.27
2023-04-01T20:08:50.772Z,28.38
2023-04-01T20:11:42.846Z,27.35
2023-04-01T20:14:24.841Z,24.45
2023-04-01T20:17:20.993Z,28.27
2023-04-01T20:20:01.189Z,26.65
2023-04-01T20:22:55.896Z,28.75
2023-04-01T20:25:34.683Z,28.67
2023-04-01T20:28:16.360Z,22.48
2023-04-01T20:31:24.875Z,25.58
2023-04-01T20:34:35.374Z,28.73
2023-04-01T20:37:26.261Z,22.90
2023-04-01T20:40:29.970Z,25.35
2023-04-01T20:43:30.638Z,27.63
2023-04-01T20:46:10.021Z,27.08
2023-04-01T20:49:10.084Z,26.70
2023-04-01T20:51:48.954Z,24.73
2023-04-01T20:54:42.430Z,28.38
2023-04-01T20:57:24.114Z,29.47
2023-04-01T21:00:22.083Z,28.00
2023-04-01T21:03:12.606Z,32.03
2023-04-01T21:06:16.679Z,35.55
2023-04-01T21:09:04.304Z,26.95
2023-04-01T21:11:46.361Z,24.38
2023-04-01T21:14:37.638Z,22.90
2023-04-01T21:17:18.586Z,23.33
2023-04-01T21:20:07.498Z,25.40
2023-04-01T21:23:05.343Z,28.00
2023-04-01T21:26:01.052Z,24.52
2023-04-01T21:28:47.446Z,23.77
2023-04-01T21:31:43.270Z,22.75
2023-04-01T21:34:42.911Z,24.27
2023-04-01T21:37:35.622Z,23.65
2023-04-01T21:40:41.565Z,23.50
2023-04-01T21:43:35.938Z,21.35
2023-04-01T21:49:33.868Z,19.13
2023-04-01T21:52:35.362Z,20.25
2023-04-01T21:55:49.960Z,21.45
2023-04-01T21:58:52.602Z,17.63
2023-04-01T22:01:57.766Z,21.35
2023-04-01T22:04:45.285Z,18.73
2023-04-01T22:07:22.035Z,15.15
2023-04-01T22:10:04.856Z,15.48
2023-04-01T22:12:48.086Z,16.23
2023-04-01T22:15:30.586Z,14.00
2023-04-01T22:18:16.930Z,14.23
2023-04-01T22:20:58.369Z,14.45
2023-04-01T22:23:44.813Z,17.92
2023-04-01T22:26:29.059Z,14.80
2023-04-01T22:29:07.787Z,13.63
2023-04-01T22:31:47.281Z,18.95
2023-04-01T22:34:28.370Z,15.02
2023-04-01T22:37:06.159Z,16.83
2023-04-01T22:39:59.225Z,14.80
2023-04-01T22:42:44.319Z,14.55
2023-04-01T22:45:47.209Z,15.55
2023-04-01T22:48:26.498Z,14.98
2023-04-01T22:51:07.892Z,15.45
2023-04-01T22:53:53.381Z,17.35
2023-04-01T22:56:33.727Z,15.13
2023-04-01T22:59:13.692Z,15.75
2023-04-01T23:01:52.709Z,17.00
2023-04-01T23:04:31.713Z,16.40
2023-04-01T23:07:17.471Z,20.00
2023-04-01T23:09:51.308Z,15.75
2023-04-01T23:15:02.865Z,17.15
2023-04-01T23:17:47.379Z,18.95
2023-04-01T23:20:28.628Z,19.08
2023-04-01T23:23:14.278Z,18.65
2023-04-01T23:25:57.012Z,17.35
2023-04-01T23:28:47.401Z,15.85
2023-04-01T23:31:35.287Z,15.85
2023-04-01T23:34:25.041Z,15.63
2023-04-01T23:37:00.984Z,15.55
2023-04-01T23:39:36.776Z,18.15
2023-04-01T23:42:17.163Z,18.48
2023-04-01T23:44:55.630Z,19.92
2023-04-01T23:47:33.726Z,19.83
2023-04-01T23:50:12.895Z,18.98
2023-04-01T23:52:49.276Z,16.27
2023-04-01T23:55:26.497Z,16.38
2023-04-01T23:58:18.500Z,16.88
